Walnut City, Iowa
Current Conditions -  °F | °C
As of 6:10 AM on Sunday 23 Nov 2014 (Local Time) from KTVK Reporting Station
Overcast Overcast  
Wind Chill: 52°   Ceiling: 1200
Heat Index: 52°   Visibility: 10mi
Dew Point: 52°   Wind: 10mph
Humidity: 100%   Direction: 140°SE
Pressure: 29.6"   Gusts: NA
Location:  40.8017°N, 92.9289°W
Report Text: KTVK 231210Z AUTO 14009KT 10SM OVC012 11/11 A2960 RMK AO2
Loading
Personal Weather Stations






























Interactive Weather Map New forecast layout! Learn more

10-Day Weather Forecast

Advertisements
Track Severe Weather on mobile